Time;durP1;ratioP1;P1;durP2;ratioP2;P2;SDS_P1;SDS_P2;PMS_P1;PMS_P2;Temp;Humidity;BMP_temperature;BMP_pressure;BME280_temperature;BME280_humidity;BME280_pressure;Samples;Min_cycle;Max_cycle;Signal;HPM_P1;HPM_P2
2022/04/21 00:00:29;;;;;;;16.55;12.75;;;12.30;59.40;;;;;;2094055;28;20029;-67
2022/04/21 00:01:31;;;;;;;15.18;12.32;;;12.30;59.50;;;;;;2095088;28;20024;-67
2022/04/21 00:02:31;;;;;;;15.13;12.57;;;12.30;59.40;;;;;;2095807;28;20479;-67
2022/04/21 00:03:32;;;;;;;15.02;12.20;;;12.30;59.50;;;;;;2096270;28;20048;-67
2022/04/21 00:04:32;;;;;;;12.27;10.88;;;12.30;59.50;;;;;;2097561;28;20111;-68
2022/04/21 00:05:33;;;;;;;15.27;11.50;;;12.30;59.60;;;;;;2096189;28;20425;-68
2022/04/21 00:06:34;;;;;;;16.63;12.18;;;12.30;59.60;;;;;;2095522;28;20025;-68
2022/04/21 00:07:35;;;;;;;14.90;11.77;;;12.30;59.60;;;;;;2093011;28;20469;-68
2022/04/21 00:08:35;;;;;;;14.82;10.75;;;12.30;59.70;;;;;;2094806;28;20059;-68
2022/04/21 00:09:36;;;;;;;15.27;10.70;;;12.20;59.70;;;;;;2090658;28;20057;-68
2022/04/21 00:10:36;;;;;;;11.50;9.38;;;12.20;59.80;;;;;;2096282;28;20033;-68
2022/04/21 00:11:37;;;;;;;10.98;9.05;;;12.20;59.70;;;;;;2096347;28;20230;-68
2022/04/21 00:12:37;;;;;;;10.68;8.85;;;12.20;59.60;;;;;;2093535;28;20032;-68
2022/04/21 00:13:38;;;;;;;10.15;8.60;;;12.20;59.90;;;;;;2096292;28;20103;-68
2022/04/21 00:14:39;;;;;;;13.20;8.25;;;12.20;59.60;;;;;;2095016;28;20377;-68
2022/04/21 00:15:39;;;;;;;11.63;9.43;;;12.20;59.30;;;;;;2096381;28;20131;-68
2022/04/21 00:16:40;;;;;;;12.55;9.13;;;12.20;59.60;;;;;;2096117;28;20032;-68
2022/04/21 00:17:41;;;;;;;10.98;7.78;;;12.20;59.90;;;;;;2094583;28;20039;-68
2022/04/21 00:18:42;;;;;;;9.23;7.38;;;12.10;59.60;;;;;;2095077;28;20032;-68
2022/04/21 00:19:43;;;;;;;10.32;8.90;;;12.10;59.30;;;;;;2094267;28;20032;-68
2022/04/21 00:20:43;;;;;;;11.55;8.40;;;12.10;59.40;;;;;;2096012;28;20021;-68
2022/04/21 00:24:23;;;;;;;7.50;6.78;;;12.10;59.60;;;;;;2093610;28;20032;-68
2022/04/21 00:25:26;;;;;;;11.25;8.07;;;12.00;59.50;;;;;;2094456;28;20021;-68
2022/04/21 00:26:27;;;;;;;11.18;8.13;;;12.00;60.00;;;;;;2095397;28;20094;-68
2022/04/21 00:27:27;;;;;;;7.95;6.75;;;12.00;60.40;;;;;;2096181;28;20074;-68
2022/04/21 00:28:28;;;;;;;10.52;7.60;;;12.00;60.00;;;;;;2095106;28;20134;-68
2022/04/21 00:29:29;;;;;;;13.35;7.00;;;12.00;59.80;;;;;;2095961;28;20633;-68
2022/04/21 00:30:30;;;;;;;13.13;8.02;;;12.00;59.60;;;;;;2091723;28;20426;-68
2022/04/21 00:31:30;;;;;;;8.32;7.53;;;12.00;60.00;;;;;;2095079;28;20685;-68
2022/04/21 00:32:31;;;;;;;9.45;6.95;;;11.90;60.00;;;;;;2095913;28;20107;-68
2022/04/21 00:33:31;;;;;;;9.25;7.30;;;12.00;60.10;;;;;;2092549;28;20024;-68
2022/04/21 00:34:33;;;;;;;7.95;6.68;;;11.90;60.10;;;;;;2095854;28;20388;-68
2022/04/21 00:35:33;;;;;;;8.90;7.35;;;11.90;60.10;;;;;;2091860;28;20021;-68
2022/04/21 00:36:34;;;;;;;10.85;6.72;;;11.90;60.20;;;;;;2094723;28;20065;-68
2022/04/21 00:37:48;;;;;;;9.05;7.05;;;11.90;60.30;;;;;;2093836;28;20032;-68
2022/04/21 00:38:48;;;;;;;7.32;6.28;;;11.90;60.70;;;;;;2094155;28;20028;-68
2022/04/21 00:39:50;;;;;;;10.13;7.85;;;11.80;60.60;;;;;;2096104;28;20036;-68
2022/04/21 00:40:50;;;;;;;9.80;7.97;;;11.80;61.20;;;;;;2095925;28;20385;-68
2022/04/21 00:42:02;;;;;;;8.02;7.32;;;11.80;61.60;;;;;;2094269;28;20087;-68
2022/04/21 00:43:02;;;;;;;8.50;6.40;;;11.80;61.40;;;;;;2092376;28;20032;-68
2022/04/21 00:44:04;;;;;;;6.93;5.63;;;11.70;61.00;;;;;;2095310;28;20024;-68
2022/04/21 00:45:05;;;;;;;9.43;7.28;;;11.70;60.80;;;;;;2092580;28;20480;-68
2022/04/21 00:46:12;;;;;;;8.43;7.13;;;11.70;61.30;;;;;;2094139;28;20456;-68
2022/04/21 00:47:13;;;;;;;9.73;7.43;;;11.70;61.90;;;;;;2091948;28;20103;-68
2022/04/21 00:48:14;;;;;;;8.18;6.20;;;11.70;61.80;;;;;;2092353;28;20365;-68
2022/04/21 00:49:16;;;;;;;8.43;6.75;;;11.60;61.40;;;;;;2095034;28;20028;-68
2022/04/21 00:50:22;;;;;;;9.60;7.78;;;11.60;62.10;;;;;;2095419;28;20020;-68
2022/04/21 00:51:24;;;;;;;9.10;7.05;;;11.60;62.00;;;;;;2091929;28;20489;-68
2022/04/21 00:52:25;;;;;;;8.63;6.57;;;11.60;62.10;;;;;;2092417;28;20016;-68
2022/04/21 00:53:26;;;;;;;6.82;6.13;;;11.50;62.00;;;;;;2095861;28;20430;-68
2022/04/21 00:54:31;;;;;;;9.60;7.00;;;11.50;61.80;;;;;;2095568;28;20021;-68
2022/04/21 00:55:32;;;;;;;8.82;6.18;;;11.50;62.30;;;;;;2093977;28;20048;-67
2022/04/21 00:56:33;;;;;;;6.85;5.80;;;11.50;61.60;;;;;;2092281;28;20025;-68
2022/04/21 00:57:34;;;;;;;7.88;6.90;;;11.40;61.50;;;;;;2095865;28;20025;-68
2022/04/21 00:58:36;;;;;;;8.10;5.78;;;11.40;62.20;;;;;;2096676;28;20411;-68
2022/04/21 00:59:37;;;;;;;6.53;5.88;;;11.40;61.70;;;;;;2097191;28;20383;-68
2022/04/21 01:00:38;;;;;;;7.68;6.75;;;11.40;61.80;;;;;;2097979;28;20085;-67
2022/04/21 01:02:59;;;;;;;7.55;5.63;;;11.40;62.10;;;;;;2096795;28;20048;-68
2022/04/21 01:03:59;;;;;;;8.63;5.75;;;11.30;62.20;;;;;;2097460;28;20041;-68
2022/04/21 01:05:00;;;;;;;7.03;6.15;;;11.30;62.30;;;;;;2097095;28;20482;-68
2022/04/21 01:06:01;;;;;;;7.90;5.55;;;11.20;62.20;;;;;;2092688;28;20418;-68
2022/04/21 01:07:02;;;;;;;8.30;5.68;;;11.20;62.10;;;;;;2096587;28;20040;-68
2022/04/21 01:08:10;;;;;;;6.38;4.90;;;11.20;61.80;;;;;;2092981;28;20053;-68
2022/04/21 01:09:11;;;;;;;6.03;5.13;;;11.20;61.90;;;;;;2095935;28;20025;-68
2022/04/21 01:10:12;;;;;;;7.97;5.57;;;11.20;62.30;;;;;;2097351;28;20017;-68
2022/04/21 01:11:13;;;;;;;7.18;5.70;;;11.10;62.60;;;;;;2097007;28;20071;-68
2022/04/21 01:12:14;;;;;;;5.68;5.18;;;11.10;63.50;;;;;;2096239;28;20020;-68
2022/04/21 01:13:16;;;;;;;7.30;6.45;;;11.10;63.70;;;;;;2097018;28;20029;-68
2022/04/21 01:14:17;;;;;;;8.23;5.38;;;11.10;64.10;;;;;;2099118;28;20419;-68
2022/04/21 01:15:17;;;;;;;5.78;5.00;;;11.00;63.90;;;;;;2097191;28;20440;-68
2022/04/21 01:16:18;;;;;;;6.65;5.70;;;11.00;64.10;;;;;;2090655;28;20048;-68
2022/04/21 01:17:33;;;;;;;7.88;5.10;;;11.00;64.60;;;;;;2097071;28;20028;-68
2022/04/21 01:18:34;;;;;;;6.63;5.47;;;11.00;65.40;;;;;;2097032;28;20059;-68
2022/04/21 01:19:35;;;;;;;5.55;4.97;;;10.90;64.50;;;;;;2096800;28;20032;-68
2022/04/21 01:20:36;;;;;;;4.97;4.55;;;10.90;64.30;;;;;;2094815;28;20392;-68
2022/04/21 01:21:36;;;;;;;7.15;5.15;;;10.90;64.60;;;;;;2096560;28;20045;-67
2022/04/21 01:22:37;;;;;;;5.95;4.70;;;10.90;65.10;;;;;;2094063;28;20031;-68
2022/04/21 01:23:37;;;;;;;5.13;4.70;;;10.80;64.80;;;;;;2095756;28;20312;-68
2022/04/21 01:24:38;;;;;;;5.57;4.55;;;10.80;64.90;;;;;;2095202;28;20032;-68
2022/04/21 01:25:40;;;;;;;5.82;5.22;;;10.80;65.00;;;;;;2091805;28;20103;-68
2022/04/21 01:26:40;;;;;;;7.25;5.30;;;10.70;65.00;;;;;;2096952;28;20082;-67
2022/04/21 01:27:42;;;;;;;5.10;4.68;;;10.70;65.20;;;;;;2093641;28;20161;-68
2022/04/21 01:28:45;;;;;;;9.20;5.47;;;10.70;65.50;;;;;;2093384;28;20403;-67
2022/04/21 01:29:45;;;;;;;6.00;5.25;;;10.70;65.90;;;;;;2097274;28;20024;-68
2022/04/21 01:30:46;;;;;;;6.72;5.00;;;10.60;66.10;;;;;;2093424;28;20618;-68
2022/04/21 01:31:46;;;;;;;6.10;4.65;;;10.60;66.70;;;;;;2095641;28;20033;-68
2022/04/21 01:32:51;;;;;;;5.97;4.72;;;10.60;66.60;;;;;;2092016;28;20491;-67
2022/04/21 01:33:52;;;;;;;6.10;4.53;;;10.60;67.00;;;;;;2093935;28;20029;-67
2022/04/21 01:34:52;;;;;;;4.53;4.00;;;10.50;67.00;;;;;;2097372;28;20032;-67
2022/04/21 01:35:53;;;;;;;5.68;4.78;;;10.50;67.90;;;;;;2097246;28;20029;-67
2022/04/21 01:41:09;;;;;;;7.15;4.45;;;10.30;69.40;;;;;;2093058;28;20040;-67
2022/04/21 01:42:17;;;;;;;4.22;3.72;;;10.30;70.30;;;;;;2097291;28;20032;-67
2022/04/21 01:43:17;;;;;;;5.93;3.83;;;10.20;70.40;;;;;;2091944;28;20028;-68
2022/04/21 01:44:18;;;;;;;5.43;3.83;;;10.20;69.60;;;;;;2100926;28;20035;-68
2022/04/21 01:45:18;;;;;;;4.10;3.53;;;10.20;69.60;;;;;;2103377;28;20047;-68
2022/04/21 01:46:19;;;;;;;4.80;4.30;;;10.20;69.90;;;;;;2097336;28;20029;-68
2022/04/21 01:47:19;;;;;;;5.63;3.88;;;10.20;70.90;;;;;;2096247;28;20070;-68
2022/04/21 01:48:20;;;;;;;4.63;4.22;;;10.20;71.20;;;;;;2093335;28;20032;-68
2022/04/21 01:49:20;;;;;;;4.63;4.15;;;10.20;71.10;;;;;;2095949;28;20023;-68
2022/04/21 01:50:21;;;;;;;8.15;4.03;;;10.20;71.00;;;;;;2097892;28;20579;-68
2022/04/21 01:51:22;;;;;;;5.50;4.00;;;10.20;71.30;;;;;;2099319;28;20610;-68
2022/04/21 01:52:23;;;;;;;6.60;3.58;;;10.20;71.90;;;;;;2097557;28;20091;-68
2022/04/21 01:53:24;;;;;;;5.22;3.38;;;10.20;72.50;;;;;;2092479;28;20020;-68
2022/04/21 01:54:24;;;;;;;4.28;3.65;;;10.10;71.40;;;;;;2098319;28;20020;-68
2022/04/21 01:55:26;;;;;;;3.60;3.30;;;10.10;71.00;;;;;;2096353;28;20024;-68
2022/04/21 01:56:26;;;;;;;6.65;4.25;;;10.10;70.40;;;;;;2094701;28;20506;-68
2022/04/21 01:57:27;;;;;;;4.10;3.35;;;10.10;70.90;;;;;;2094232;28;20033;-68
2022/04/21 01:58:27;;;;;;;4.53;3.20;;;10.10;70.40;;;;;;2091351;28;20013;-68
2022/04/21 01:59:28;;;;;;;3.47;3.17;;;10.10;70.10;;;;;;2095049;28;20476;-67
2022/04/21 02:00:29;;;;;;;5.25;3.70;;;10.00;69.80;;;;;;2097269;28;20023;-67
2022/04/21 02:01:29;;;;;;;4.10;3.00;;;10.10;70.30;;;;;;2092497;28;20079;-67
2022/04/21 02:02:30;;;;;;;4.80;3.65;;;10.00;69.80;;;;;;2093147;28;20024;-67
2022/04/21 02:03:32;;;;;;;5.70;3.65;;;10.10;70.40;;;;;;2096789;28;20044;-68
2022/04/21 02:04:32;;;;;;;5.55;3.40;;;10.00;70.30;;;;;;2097712;28;20028;-68
2022/04/21 02:05:33;;;;;;;3.92;3.63;;;10.00;70.40;;;;;;2096506;28;20021;-67
2022/04/21 02:06:34;;;;;;;4.47;3.80;;;10.00;70.40;;;;;;2096909;28;20023;-68
2022/04/21 02:07:36;;;;;;;4.07;3.42;;;10.00;71.30;;;;;;2096555;28;20484;-68
2022/04/21 02:08:37;;;;;;;4.28;3.40;;;10.00;70.60;;;;;;2089442;28;20028;-68
2022/04/21 02:09:38;;;;;;;4.22;3.55;;;10.00;69.90;;;;;;2094573;28;20047;-68
2022/04/21 02:10:38;;;;;;;5.50;3.78;;;9.90;70.00;;;;;;2095656;28;20040;-68
2022/04/21 02:11:39;;;;;;;5.78;3.55;;;9.90;70.30;;;;;;2094051;28;20035;-67
2022/04/21 02:12:40;;;;;;;4.15;3.45;;;9.90;70.50;;;;;;2096588;28;20089;-68
2022/04/21 02:13:40;;;;;;;6.80;3.47;;;9.90;70.40;;;;;;2094938;28;20028;-68
2022/04/21 02:14:41;;;;;;;5.47;3.53;;;9.90;70.60;;;;;;2096814;28;20036;-67
2022/04/21 02:15:41;;;;;;;3.97;3.58;;;9.90;70.80;;;;;;2095262;28;20060;-68
2022/04/21 02:16:42;;;;;;;4.85;3.58;;;9.90;70.90;;;;;;2093713;28;20051;-68
2022/04/21 02:17:43;;;;;;;4.85;4.10;;;9.80;71.00;;;;;;2096029;28;20490;-68
2022/04/21 02:18:44;;;;;;;5.43;3.80;;;9.80;71.60;;;;;;2097850;28;20186;-68
2022/04/21 02:19:45;;;;;;;3.95;3.35;;;9.80;72.00;;;;;;2096519;28;20440;-68
2022/04/21 02:20:46;;;;;;;4.55;3.25;;;9.80;72.30;;;;;;2096829;28;20035;-68
2022/04/21 02:21:47;;;;;;;4.45;3.83;;;9.80;72.10;;;;;;2093688;28;20514;-67
2022/04/21 02:22:48;;;;;;;5.82;3.83;;;9.80;72.40;;;;;;2096542;28;20021;-67
2022/04/21 02:23:48;;;;;;;4.68;3.65;;;9.80;72.80;;;;;;2096313;28;20025;-67
2022/04/21 02:24:49;;;;;;;4.78;3.80;;;9.70;72.90;;;;;;2098799;28;20039;-68
2022/04/21 02:25:49;;;;;;;5.97;4.07;;;9.70;73.40;;;;;;2092856;28;20029;-68
2022/04/21 02:26:50;;;;;;;9.18;3.55;;;9.70;73.60;;;;;;2093132;28;20025;-68
2022/04/21 02:27:50;;;;;;;4.53;4.07;;;9.70;73.20;;;;;;2095318;28;20044;-67
2022/04/21 02:28:51;;;;;;;4.00;3.22;;;9.60;73.30;;;;;;2095339;28;20502;-68
2022/04/21 02:29:52;;;;;;;4.07;3.67;;;9.60;73.40;;;;;;2095042;28;20111;-67
2022/04/21 02:30:53;;;;;;;3.72;3.35;;;9.60;73.50;;;;;;2092955;28;20040;-67
2022/04/21 02:31:54;;;;;;;6.28;4.28;;;9.60;73.10;;;;;;2095321;28;20032;-67
2022/04/21 02:32:54;;;;;;;3.95;3.65;;;9.60;74.00;;;;;;2095880;28;20020;-68
2022/04/21 02:33:55;;;;;;;5.20;3.50;;;9.50;74.40;;;;;;2096152;28;20033;-68
2022/04/21 02:34:55;;;;;;;3.55;3.22;;;9.50;74.30;;;;;;2096932;28;20036;-68
2022/04/21 02:35:56;;;;;;;6.07;3.55;;;9.50;74.20;;;;;;2092262;28;20056;-68
2022/04/21 02:36:57;;;;;;;3.33;3.03;;;9.50;74.30;;;;;;2093375;28;20411;-67
2022/04/21 02:37:57;;;;;;;5.25;3.60;;;9.50;73.90;;;;;;2094512;28;20033;-68
2022/04/21 02:38:58;;;;;;;3.38;3.08;;;9.50;73.80;;;;;;2095976;28;20594;-67
2022/04/21 02:39:58;;;;;;;5.13;3.42;;;9.40;74.10;;;;;;2093653;28;20031;-67
2022/04/21 02:40:59;;;;;;;6.60;4.20;;;9.40;74.00;;;;;;2091229;28;20048;-68
2022/04/21 02:42:00;;;;;;;6.50;4.05;;;9.40;75.10;;;;;;2100680;28;20032;-68
2022/04/21 02:43:00;;;;;;;4.18;3.75;;;9.40;76.30;;;;;;2102753;28;20024;-67
2022/04/21 02:44:01;;;;;;;5.65;3.90;;;9.30;76.20;;;;;;2092042;28;20349;-68
2022/04/21 02:45:03;;;;;;;4.55;3.60;;;9.30;76.00;;;;;;2096209;28;20162;-68
2022/04/21 02:46:04;;;;;;;7.43;3.95;;;9.30;77.20;;;;;;2095051;28;20094;-68
2022/04/21 02:47:07;;;;;;;5.68;3.70;;;9.30;77.50;;;;;;2095709;28;20117;-68
2022/04/21 02:48:09;;;;;;;5.18;3.60;;;9.30;77.20;;;;;;2094432;28;20035;-68
2022/04/21 02:49:10;;;;;;;4.57;3.85;;;9.20;76.10;;;;;;2095013;28;20020;-68
2022/04/21 02:50:16;;;;;;;4.28;3.83;;;9.20;76.70;;;;;;2096316;28;20016;-67
2022/04/21 02:51:16;;;;;;;4.97;3.20;;;9.20;76.90;;;;;;2094957;28;20095;-67
2022/04/21 02:52:17;;;;;;;5.35;3.35;;;9.20;76.00;;;;;;2091517;28;20472;-67
2022/04/21 02:57:19;;;;;;;5.63;4.10;;;9.20;76.70;;;;;;2093151;28;20017;-68
2022/04/21 02:57:20;;;;;;;5.25;3.58;;;9.10;78.00;;;;;;2094723;28;20024;-68
2022/04/21 02:58:22;;;;;;;6.40;3.92;;;9.00;77.90;;;;;;2092964;28;20021;-68
2022/04/21 02:59:23;;;;;;;5.38;3.80;;;9.00;78.60;;;;;;2090889;28;20017;-68
2022/04/21 03:00:24;;;;;;;3.58;3.28;;;9.00;77.60;;;;;;2096446;28;20021;-68
2022/04/21 03:01:24;;;;;;;3.85;3.35;;;9.00;76.90;;;;;;2093814;28;20062;-68
2022/04/21 03:02:25;;;;;;;5.20;3.83;;;9.00;77.30;;;;;;2093649;28;20024;-68
2022/04/21 03:03:26;;;;;;;5.43;4.00;;;8.90;78.00;;;;;;2094730;28;20025;-68
2022/04/21 03:04:26;;;;;;;4.47;3.85;;;8.90;78.70;;;;;;2096972;28;20049;-68
2022/04/21 03:05:27;;;;;;;4.05;3.55;;;8.90;79.20;;;;;;2095431;28;20032;-68
2022/04/21 03:06:27;;;;;;;4.95;4.15;;;8.90;78.90;;;;;;2096528;28;20500;-68
2022/04/21 03:07:28;;;;;;;4.00;3.60;;;8.90;78.50;;;;;;2096262;28;20559;-68
2022/04/21 03:08:28;;;;;;;5.80;4.03;;;8.90;79.00;;;;;;2095918;28;20035;-68
2022/04/21 03:09:29;;;;;;;4.45;3.53;;;8.80;79.50;;;;;;2094109;28;20427;-68
2022/04/21 03:10:31;;;;;;;6.55;3.67;;;8.80;79.60;;;;;;2095659;28;20034;-68
2022/04/21 03:11:31;;;;;;;4.00;3.60;;;8.80;79.60;;;;;;2096905;28;20029;-68
2022/04/21 03:12:32;;;;;;;5.03;3.67;;;8.80;79.60;;;;;;2093504;28;20057;-68
2022/04/21 03:13:33;;;;;;;3.72;3.40;;;8.80;79.60;;;;;;2095571;28;20028;-68
2022/04/21 03:14:40;;;;;;;4.35;3.70;;;8.70;79.90;;;;;;2095664;28;20077;-68
2022/04/21 03:15:41;;;;;;;5.18;3.53;;;8.70;81.20;;;;;;2094802;28;20035;-68
2022/04/21 03:16:41;;;;;;;5.13;3.45;;;8.70;79.70;;;;;;2094570;28;20068;-68
2022/04/21 03:17:42;;;;;;;3.95;3.65;;;8.70;79.90;;;;;;2092420;28;20031;-68
2022/04/21 03:18:42;;;;;;;7.28;3.72;;;8.70;80.90;;;;;;2095595;28;20021;-68
2022/04/21 03:19:43;;;;;;;5.05;3.75;;;8.60;81.30;;;;;;2095775;28;20035;-68
2022/04/21 03:24:41;;;;;;;6.57;3.95;;;8.50;79.80;;;;;;2096068;28;20801;-68
2022/04/21 03:25:42;;;;;;;3.85;3.55;;;8.50;80.90;;;;;;2095332;28;20028;-68
2022/04/21 03:26:42;;;;;;;3.63;3.30;;;8.50;81.00;;;;;;2092180;28;20024;-68
2022/04/21 03:27:46;;;;;;;5.75;4.22;;;8.50;80.10;;;;;;2097460;28;20032;-68
2022/04/21 03:28:47;;;;;;;4.88;3.42;;;8.40;80.60;;;;;;2097795;28;20085;-68
2022/04/21 03:29:47;;;;;;;3.92;3.53;;;8.50;80.20;;;;;;2097297;28;20548;-68
2022/04/21 03:30:48;;;;;;;4.35;3.83;;;8.40;80.90;;;;;;2092368;28;20531;-68
2022/04/21 03:31:48;;;;;;;4.90;3.95;;;8.40;82.00;;;;;;2096190;28;20052;-68
2022/04/21 03:32:49;;;;;;;5.47;4.00;;;8.40;82.80;;;;;;2092117;28;20041;-68
2022/04/21 03:33:50;;;;;;;6.50;4.07;;;8.40;83.60;;;;;;2094727;28;20038;-68
2022/04/21 03:34:51;;;;;;;5.07;3.55;;;8.40;84.30;;;;;;2096089;28;20040;-68
2022/04/21 03:35:52;;;;;;;4.63;3.50;;;8.40;83.80;;;;;;2095435;28;20036;-68
2022/04/21 03:36:52;;;;;;;4.47;3.95;;;8.40;83.00;;;;;;2093767;28;20048;-68
2022/04/21 03:37:53;;;;;;;4.43;3.60;;;8.40;82.80;;;;;;2095357;28;20082;-68
2022/04/21 03:38:53;;;;;;;5.80;3.60;;;8.30;82.30;;;;;;2095052;28;20029;-68
2022/04/21 03:39:54;;;;;;;4.38;3.97;;;8.30;82.10;;;;;;2095185;28;20029;-68
2022/04/21 03:40:56;;;;;;;4.43;3.97;;;8.30;83.10;;;;;;2092565;28;20031;-68
2022/04/21 03:41:57;;;;;;;4.50;4.05;;;8.30;84.50;;;;;;2094056;28;20500;-68
2022/04/21 03:42:57;;;;;;;6.70;3.38;;;8.30;84.50;;;;;;2095688;28;21307;-68
2022/04/21 03:43:58;;;;;;;5.25;3.80;;;8.20;84.00;;;;;;2095193;28;20629;-68
2022/04/21 03:44:59;;;;;;;6.88;3.72;;;8.20;83.60;;;;;;2094902;28;20395;-68
2022/04/21 03:46:00;;;;;;;4.88;3.50;;;8.20;83.00;;;;;;2091371;28;20025;-68
2022/04/21 03:47:01;;;;;;;5.43;3.80;;;8.20;83.80;;;;;;2100306;28;20017;-68
2022/04/21 03:48:02;;;;;;;4.55;3.50;;;8.20;83.80;;;;;;2094961;28;20598;-68
2022/04/21 03:49:03;;;;;;;4.25;3.83;;;8.20;83.90;;;;;;2096404;28;20038;-68
2022/04/21 03:50:05;;;;;;;3.95;3.50;;;8.20;84.70;;;;;;2094354;28;20600;-68
2022/04/21 03:51:06;;;;;;;4.63;3.33;;;8.10;84.00;;;;;;2095890;28;20119;-68
2022/04/21 03:52:07;;;;;;;4.28;3.85;;;8.10;83.60;;;;;;2092334;28;20021;-68
2022/04/21 03:53:07;;;;;;;5.63;3.88;;;8.10;84.40;;;;;;2092485;28;20053;-68
2022/04/21 03:54:08;;;;;;;4.25;3.85;;;8.10;85.40;;;;;;2090085;28;20029;-68
2022/04/21 03:55:08;;;;;;;4.60;3.78;;;8.10;85.30;;;;;;2093861;28;20033;-68
2022/04/21 03:56:09;;;;;;;6.43;4.13;;;8.10;85.10;;;;;;2094409;28;20048;-68
2022/04/21 03:57:09;;;;;;;4.53;3.90;;;8.10;86.40;;;;;;2091701;28;20090;-68
2022/04/21 03:58:10;;;;;;;4.70;4.20;;;8.10;86.60;;;;;;2094693;28;20103;-68
2022/04/21 03:59:10;;;;;;;5.22;3.58;;;8.00;86.40;;;;;;2092208;28;20036;-68
2022/04/21 04:00:11;;;;;;;7.10;3.78;;;8.00;86.40;;;;;;2096359;28;20033;-68
2022/04/21 04:01:12;;;;;;;4.55;3.67;;;8.00;85.50;;;;;;2095215;28;20027;-67
2022/04/21 04:02:12;;;;;;;4.10;3.70;;;8.00;85.30;;;;;;2096208;28;20507;-68
2022/04/21 04:03:14;;;;;;;3.90;3.30;;;8.00;85.20;;;;;;2095293;28;20024;-68
2022/04/21 04:04:14;;;;;;;4.72;3.50;;;8.00;84.60;;;;;;2092470;28;20014;-68
2022/04/21 04:05:15;;;;;;;6.50;3.90;;;7.90;84.20;;;;;;2097202;28;20035;-68
2022/04/21 04:11:35;;;;;;;4.03;3.63;;;7.80;87.90;;;;;;2096262;28;20107;-68
2022/04/21 04:12:38;;;;;;;3.92;3.53;;;7.70;87.60;;;;;;2095837;28;20032;-68
2022/04/21 04:13:39;;;;;;;5.47;3.67;;;7.70;87.80;;;;;;2097898;28;20036;-68
2022/04/21 04:14:40;;;;;;;6.63;4.70;;;7.70;86.60;;;;;;2091545;28;20029;-68
2022/04/21 04:15:40;;;;;;;7.10;4.00;;;7.70;86.60;;;;;;2093554;28;20143;-68
2022/04/21 04:16:41;;;;;;;4.20;3.90;;;7.70;87.00;;;;;;2095481;28;20047;-68
2022/04/21 04:17:41;;;;;;;4.30;3.25;;;7.70;88.20;;;;;;2094353;28;20432;-68
2022/04/21 04:18:42;;;;;;;4.45;4.05;;;7.70;87.40;;;;;;2095779;28;20036;-68
2022/04/21 04:19:42;;;;;;;5.63;3.60;;;7.70;87.40;;;;;;2091981;28;20115;-68
2022/04/21 04:20:43;;;;;;;4.07;3.55;;;7.70;88.90;;;;;;2095185;28;20033;-68
2022/04/21 04:21:44;;;;;;;6.05;3.67;;;7.70;89.00;;;;;;2091237;28;20073;-67
2022/04/21 04:22:44;;;;;;;3.83;3.50;;;7.60;88.40;;;;;;2093703;28;20051;-68
2022/04/21 04:23:44;;;;;;;4.85;3.90;;;7.60;88.70;;;;;;2096057;28;20481;-67
2022/04/21 04:24:45;;;;;;;3.88;3.30;;;7.60;88.70;;;;;;2093017;28;20028;-67
2022/04/21 04:25:46;;;;;;;5.20;3.45;;;7.60;88.10;;;;;;2093217;28;20077;-68
2022/04/21 04:26:47;;;;;;;10.40;4.65;;;7.60;87.40;;;;;;2095981;28;20082;-68
2022/04/21 04:27:47;;;;;;;6.85;4.47;;;7.60;87.80;;;;;;2095464;28;20107;-68
2022/04/21 04:28:49;;;;;;;4.00;3.60;;;7.60;87.40;;;;;;2095003;28;20029;-68
2022/04/21 04:29:50;;;;;;;4.53;3.90;;;7.60;88.50;;;;;;2093542;28;20021;-67
2022/04/21 04:30:50;;;;;;;5.88;3.90;;;7.50;89.40;;;;;;2096333;28;20662;-68
2022/04/21 04:31:54;;;;;;;5.35;4.50;;;7.50;90.30;;;;;;2096421;28;20031;-67
2022/04/21 04:32:55;;;;;;;5.25;3.80;;;7.50;90.50;;;;;;2097209;28;20072;-68
2022/04/21 04:33:55;;;;;;;4.53;3.75;;;7.50;90.70;;;;;;2095575;28;20024;-68
2022/04/21 04:34:56;;;;;;;4.43;3.42;;;7.50;90.50;;;;;;2097607;28;20035;-68
2022/04/21 04:35:56;;;;;;;4.28;3.88;;;7.50;90.10;;;;;;2096204;28;20620;-68
2022/04/21 04:36:57;;;;;;;4.65;4.05;;;7.50;90.40;;;;;;2096889;28;20032;-67
2022/04/21 04:37:58;;;;;;;5.28;4.43;;;7.50;90.40;;;;;;2094117;28;20036;-68
2022/04/21 04:38:59;;;;;;;4.25;3.88;;;7.50;90.40;;;;;;2095465;28;20029;-68
2022/04/21 04:40:00;;;;;;;4.78;4.28;;;7.50;90.90;;;;;;2094669;28;20503;-68
2022/04/21 04:42:16;;;;;;;4.82;4.30;;;7.40;91.30;;;;;;2096272;28;20066;-67
2022/04/21 04:42:22;;;;;;;;;;;7.40;91.40;;;;;;2097172;28;20115;-67
2022/04/21 04:43:23;;;;;;;4.63;3.95;;;7.30;92.30;;;;;;2099141;28;19973;-67
2022/04/21 04:44:23;;;;;;;8.75;4.03;;;7.30;91.40;;;;;;2097034;28;20139;-68
2022/04/21 04:46:43;;;;;;;6.53;3.72;;;7.30;91.10;;;;;;2095674;28;20036;-68
2022/04/21 04:47:44;;;;;;;4.32;3.92;;;7.30;90.60;;;;;;2096962;28;20036;-68
2022/04/21 04:48:44;;;;;;;4.75;4.07;;;7.30;91.10;;;;;;2096941;28;20107;-68
2022/04/21 04:49:45;;;;;;;4.82;3.65;;;7.30;91.50;;;;;;2096332;28;20060;-68
2022/04/21 04:50:46;;;;;;;4.00;3.60;;;7.30;91.50;;;;;;2096622;28;20032;-67
2022/04/21 04:51:47;;;;;;;3.80;3.40;;;7.40;91.40;;;;;;2097009;28;20025;-67
2022/04/21 04:52:48;;;;;;;4.38;3.97;;;7.40;91.40;;;;;;2095152;28;20025;-68
2022/04/21 04:53:48;;;;;;;4.65;3.65;;;7.30;91.40;;;;;;2096972;28;20069;-68
2022/04/21 04:54:49;;;;;;;5.18;4.18;;;7.30;91.40;;;;;;2094861;28;20434;-68
2022/04/21 04:55:49;;;;;;;4.47;4.07;;;7.40;91.70;;;;;;2096672;28;20564;-68
2022/04/21 04:56:50;;;;;;;4.35;3.63;;;7.40;91.90;;;;;;2094823;28;20493;-68
2022/04/21 04:57:50;;;;;;;5.50;3.95;;;7.40;92.00;;;;;;2097076;28;20029;-67
2022/04/21 04:58:51;;;;;;;4.53;3.92;;;7.30;92.20;;;;;;2096364;28;20037;-68
2022/04/21 04:59:52;;;;;;;4.82;4.13;;;7.40;92.50;;;;;;2097070;28;20460;-67
2022/04/21 05:00:53;;;;;;;6.13;4.20;;;7.30;92.40;;;;;;2093859;28;20672;-67
2022/04/21 05:01:53;;;;;;;4.70;4.20;;;7.30;92.30;;;;;;2095624;28;20016;-68
2022/04/21 05:02:54;;;;;;;5.35;4.45;;;7.30;92.90;;;;;;2095161;28;20447;-68
2022/04/21 05:04:05;;;;;;;7.07;4.68;;;7.40;93.10;;;;;;2095824;28;20081;-68
2022/04/21 05:05:06;;;;;;;5.97;4.43;;;7.40;93.90;;;;;;2094652;28;20043;-68
2022/04/21 05:06:07;;;;;;;5.25;4.50;;;7.40;93.70;;;;;;2096902;28;20065;-68
2022/04/21 05:07:07;;;;;;;4.72;4.32;;;7.40;93.70;;;;;;2096434;28;20078;-67
2022/04/21 05:08:08;;;;;;;5.03;4.18;;;7.40;93.90;;;;;;2097309;28;20021;-68
2022/04/21 05:09:17;;;;;;;6.38;4.40;;;7.40;93.70;;;;;;2095955;28;20027;-68
2022/04/21 05:10:19;;;;;;;5.57;4.45;;;7.40;94.30;;;;;;2094669;28;20123;-68
2022/04/21 05:11:21;;;;;;;5.72;4.40;;;7.40;94.20;;;;;;2095671;28;20035;-68
2022/04/21 05:12:21;;;;;;;5.47;4.60;;;7.40;94.40;;;;;;2096037;28;20024;-68
2022/04/21 05:13:22;;;;;;;6.47;4.38;;;7.40;94.50;;;;;;2095583;28;20041;-68
2022/04/21 05:14:25;;;;;;;5.00;4.50;;;7.40;94.40;;;;;;2096660;28;20036;-68
2022/04/21 05:15:25;;;;;;;5.93;4.40;;;7.40;94.80;;;;;;2095384;28;20032;-68
2022/04/21 05:16:26;;;;;;;6.72;4.25;;;7.40;95.70;;;;;;2094706;28;20028;-68
2022/04/21 05:17:27;;;;;;;5.38;4.28;;;7.40;95.50;;;;;;2096887;28;20025;-68
2022/04/21 05:18:28;;;;;;;6.80;4.53;;;7.40;96.10;;;;;;2096776;28;20021;-68
2022/04/21 05:19:29;;;;;;;9.73;4.50;;;7.50;97.00;;;;;;2095821;28;20126;-68
2022/04/21 05:20:30;;;;;;;6.53;4.90;;;7.50;98.10;;;;;;2094204;28;20013;-68
2022/04/21 05:21:32;;;;;;;7.22;5.18;;;7.50;99.00;;;;;;2095123;28;20056;-68
2022/04/21 05:22:37;;;;;;;5.93;4.80;;;7.60;99.70;;;;;;2097287;28;20021;-68
2022/04/21 05:23:39;;;;;;;7.15;4.85;;;7.60;99.90;;;;;;2095346;28;20024;-68
2022/04/21 05:24:40;;;;;;;9.30;5.32;;;7.70;99.90;;;;;;2097007;28;20020;-68
2022/04/21 05:25:41;;;;;;;7.00;5.18;;;7.70;99.90;;;;;;2095894;28;20105;-68
2022/04/21 05:26:43;;;;;;;6.68;5.28;;;7.80;99.90;;;;;;2095907;28;20051;-68
2022/04/21 05:27:44;;;;;;;9.80;5.50;;;7.80;99.90;;;;;;2095489;28;20047;-68
2022/04/21 05:28:45;;;;;;;6.72;5.15;;;7.90;99.90;;;;;;2094776;28;20100;-68
2022/04/21 05:31:05;;;;;;;7.45;5.00;;;8.00;99.90;;;;;;2096809;28;20029;-68
2022/04/21 05:32:06;;;;;;;6.25;5.30;;;8.00;99.90;;;;;;2096634;28;20028;-67
2022/04/21 05:33:10;;;;;;;8.05;5.13;;;8.10;99.90;;;;;;2095809;28;20066;-68
2022/04/21 05:34:11;;;;;;;6.80;5.20;;;8.20;99.90;;;;;;2096438;28;20037;-68
2022/04/21 05:35:12;;;;;;;6.35;4.72;;;8.30;99.90;;;;;;2094726;28;20104;-68
2022/04/21 05:36:13;;;;;;;9.95;5.97;;;8.40;99.90;;;;;;2096292;28;20134;-68
2022/04/21 05:37:13;;;;;;;8.80;5.72;;;8.40;99.90;;;;;;2096189;28;20024;-68
2022/04/21 05:38:16;;;;;;;8.00;5.63;;;8.50;99.90;;;;;;2094822;28;20150;-68
2022/04/21 05:39:17;;;;;;;6.13;4.80;;;8.60;99.90;;;;;;2092690;28;20036;-68
2022/04/21 05:40:18;;;;;;;8.02;5.85;;;8.70;99.90;;;;;;2090353;28;20035;-68
2022/04/21 05:41:19;;;;;;;7.35;5.38;;;8.70;99.90;;;;;;2092808;28;20475;-68
2022/04/21 05:42:23;;;;;;;7.22;5.13;;;8.80;99.90;;;;;;2093883;28;20040;-68
2022/04/21 05:43:50;;;;;;;14.32;5.88;;;8.90;99.90;;;;;;2094732;28;20515;-68
2022/04/21 05:44:52;;;;;;;5.03;4.28;;;9.00;99.90;;;;;;2093611;28;20048;-68